Terminal Aerodrome Forecast
Issued by NWS Goodland, KS

Home | Current Version | Previous Version | Text Only | Print | Product List | Glossary On
Versions: 1 2 3 4 5 6 7 8 9 10 11 12 13 14 15 16 17
000
FTUS43 KGLD 050520
TAFGLD
TAF
KGLD 050520Z 0506/0606 16015KT P6SM BKN250
     FM051000 18010KT P6SM SCT250
     FM051700 18023G32KT P6SM FEW250
     FM060100 19017KT P6SM SCT250
     FM060300 21014KT P6SM VCTS SCT090CB BKN250=

USA.gov is the U.S. government's official web portal to all federal, state and local government web resources and services.